Time;durP1;ratioP1;P1;durP2;ratioP2;P2;SDS_P1;SDS_P2;PMS_P1;PMS_P2;Temp;Humidity;BMP_temperature;BMP_pressure;BME280_temperature;BME280_humidity;BME280_pressure;Samples;Min_cycle;Max_cycle;Signal;HPM_P1;HPM_P2
2022/05/15 00:02:07;;;;;;;28.73;19.12;;;;;;;12.52;65.77;98854.00;1693634;84;25500;-62
2022/05/15 00:04:35;;;;;;;32.30;19.60;;;;;;;12.45;64.66;98857.80;1693767;84;26212;-60
2022/05/15 00:07:03;;;;;;;28.57;17.45;;;;;;;12.46;64.66;98859.41;1693876;84;25670;-61
2022/05/15 00:09:30;;;;;;;28.77;18.07;;;;;;;12.45;64.72;98859.17;1693902;84;27594;-60
2022/05/15 00:11:57;;;;;;;31.82;19.62;;;;;;;12.49;64.68;98860.72;1694741;84;25922;-59
2022/05/15 00:14:24;;;;;;;28.30;18.20;;;;;;;12.51;64.65;98857.89;1699083;84;25527;-60
2022/05/15 00:16:51;;;;;;;30.10;18.80;;;;;;;12.50;64.90;98864.52;1698960;84;25891;-59
2022/05/15 00:19:18;;;;;;;29.55;19.80;;;;;;;12.45;64.81;98866.59;1698980;84;25672;-60
2022/05/15 00:21:45;;;;;;;36.90;22.82;;;;;;;12.41;64.78;98868.61;1699029;84;27614;-59
2022/05/15 00:24:12;;;;;;;29.72;19.42;;;;;;;12.40;64.65;98862.88;1698837;84;25629;-60
2022/05/15 00:26:39;;;;;;;28.62;19.32;;;;;;;12.39;64.75;98870.07;1699053;84;25612;-59
2022/05/15 00:29:05;;;;;;;29.42;18.73;;;;;;;12.33;64.64;98874.09;1699011;84;26055;-60
2022/05/15 00:31:31;;;;;;;29.52;19.85;;;;;;;12.25;64.73;98875.70;1699233;84;25674;-57
2022/05/15 00:33:57;;;;;;;25.35;18.10;;;;;;;12.17;64.86;98875.36;1698927;84;27419;-60
2022/05/15 00:36:23;;;;;;;29.98;18.98;;;;;;;12.12;64.95;98868.62;1699060;84;25648;-56
2022/05/15 00:38:49;;;;;;;25.10;17.87;;;;;;;12.12;64.90;98871.96;1699062;84;25660;-57
2022/05/15 00:41:15;;;;;;;29.02;18.87;;;;;;;12.04;64.74;98874.89;1699380;84;25716;-57
2022/05/15 00:43:49;;;;;;;29.10;18.15;;;;;;;12.04;64.78;98871.56;1698854;84;25635;-60
2022/05/15 00:46:32;;;;;;;26.68;17.32;;;;;;;12.04;64.80;98870.77;1699047;84;27484;-56
2022/05/15 00:49:01;;;;;;;25.62;17.00;;;;;;;12.03;64.81;98876.00;1698529;84;25649;-59
2022/05/15 00:51:36;;;;;;;26.48;16.82;;;;;;;12.05;64.68;98875.13;1699232;84;25588;-59
2022/05/15 00:54:13;;;;;;;22.98;16.10;;;;;;;12.05;64.58;98875.95;1699268;84;26523;-58
2022/05/15 00:56:45;;;;;;;24.27;17.00;;;;;;;12.05;64.85;98875.95;1699370;84;25658;-57
2022/05/15 00:59:15;;;;;;;34.10;19.12;;;;;;;12.06;64.72;98869.88;1698913;84;28633;-56
2022/05/15 01:01:42;;;;;;;29.50;18.65;;;;;;;12.07;64.76;98880.30;1699546;84;25452;-60
2022/05/15 01:04:08;;;;;;;29.63;19.07;;;;;;;12.03;64.70;98877.38;1699176;84;25547;-60
2022/05/15 01:06:36;;;;;;;27.45;17.45;;;;;;;12.03;64.70;98876.00;1699206;84;25487;-59
2022/05/15 01:09:05;;;;;;;28.47;17.55;;;;;;;11.91;64.95;98876.06;1699017;84;25667;-59
2022/05/15 01:11:34;;;;;;;24.40;17.17;;;;;;;11.82;65.14;98871.64;1699244;84;27398;-59
2022/05/15 01:14:05;;;;;;;26.80;17.98;;;;;;;11.71;65.47;98874.67;1698780;84;25641;-60
2022/05/15 01:16:33;;;;;;;28.27;18.52;;;;;;;11.57;65.88;98879.47;1699267;84;25428;-59
2022/05/15 01:19:01;;;;;;;27.30;18.02;;;;;;;11.47;65.85;98870.92;1699345;84;25717;-60
2022/05/15 01:21:53;;;;;;;30.45;18.98;;;;;;;11.51;65.88;98872.72;1698965;84;25626;-60
2022/05/15 01:24:20;;;;;;;30.32;18.05;;;;;;;11.55;65.71;98875.66;1699243;84;28385;-60
2022/05/15 01:26:46;;;;;;;23.62;16.57;;;;;;;11.58;65.69;98877.78;1698810;84;26122;-60
2022/05/15 01:29:13;;;;;;;25.25;16.90;;;;;;;11.59;65.69;98881.31;1699324;84;25448;-60
2022/05/15 01:31:40;;;;;;;26.52;15.90;;;;;;;11.58;65.49;98882.45;1699183;84;25771;-60
2022/05/15 01:34:09;;;;;;;26.93;17.95;;;;;;;11.61;65.57;98873.58;1699185;84;25443;-60
2022/05/15 01:36:35;;;;;;;26.20;17.42;;;;;;;11.61;65.33;98870.84;1699107;84;28333;-60
2022/05/15 01:39:03;;;;;;;25.57;17.73;;;;;;;11.59;65.43;98872.53;1699254;84;25655;-60
2022/05/15 01:41:30;;;;;;;23.73;16.77;;;;;;;11.59;65.45;98873.08;1699099;84;25452;-60
2022/05/15 01:43:56;;;;;;;22.45;16.00;;;;;;;11.58;65.68;98879.15;1699233;84;25937;-60
2022/05/15 01:46:25;;;;;;;22.32;16.15;;;;;;;11.57;65.57;98876.14;1699078;84;25439;-60
2022/05/15 01:48:53;;;;;;;24.15;15.53;;;;;;;11.51;65.59;98876.84;1699152;84;27396;-56
2022/05/15 01:51:22;;;;;;;26.40;15.65;;;;;;;11.46;65.93;98878.92;1699022;84;25688;-59
2022/05/15 01:53:48;;;;;;;24.25;15.40;;;;;;;11.42;65.89;98874.05;1699069;84;25660;-54
2022/05/15 01:56:14;;;;;;;24.35;15.20;;;;;;;11.42;65.92;98877.35;1699161;84;25948;-56
2022/05/15 01:58:40;;;;;;;20.60;13.95;;;;;;;11.38;65.95;98875.81;1698888;84;25705;-58
2022/05/15 02:01:07;;;;;;;21.37;14.53;;;;;;;11.39;65.95;98874.69;1699207;84;27395;-60
2022/05/15 02:03:35;;;;;;;20.80;14.13;;;;;;;11.40;65.94;98879.62;1699128;84;25712;-58
2022/05/15 02:06:03;;;;;;;20.40;13.93;;;;;;;11.42;65.96;98879.55;1698851;84;25504;-60
2022/05/15 02:08:32;;;;;;;19.82;12.93;;;;;;;11.46;65.97;98880.29;1699150;84;25863;-56
2022/05/15 02:10:59;;;;;;;17.60;13.00;;;;;;;11.47;65.94;98883.27;1699107;84;25487;-60
2022/05/15 02:13:27;;;;;;;19.70;12.58;;;;;;;11.54;65.99;98876.77;1698901;84;27386;-56
2022/05/15 02:15:53;;;;;;;21.23;12.35;;;;;;;11.59;65.88;98872.53;1699048;84;25772;-59
2022/05/15 02:18:19;;;;;;;21.70;13.05;;;;;;;11.47;66.35;98879.16;1699240;84;25640;-57
2022/05/15 02:20:45;;;;;;;17.75;12.18;;;;;;;11.35;66.53;98879.19;1699131;84;26577;-59
2022/05/15 02:23:11;;;;;;;20.43;13.93;;;;;;;11.39;66.39;98880.17;1699120;84;25439;-60
2022/05/15 02:25:39;;;;;;;18.55;12.88;;;;;;;11.37;66.38;98875.55;1698950;84;27491;-60
2022/05/15 02:28:05;;;;;;;21.35;13.70;;;;;;;11.34;66.52;98881.66;1698910;84;25685;-59
2022/05/15 02:30:32;;;;;;;19.75;13.18;;;;;;;11.31;66.61;98877.38;1699387;84;25706;-60
2022/05/15 02:32:58;;;;;;;19.27;13.75;;;;;;;11.26;66.80;98883.22;1699249;84;25857;-59
2022/05/15 02:35:24;;;;;;;24.25;13.65;;;;;;;11.26;66.83;98887.92;1699054;84;25688;-58
2022/05/15 02:37:50;;;;;;;21.20;13.40;;;;;;;11.26;66.98;98888.70;1699374;84;27576;-60
2022/05/15 02:40:21;;;;;;;19.10;13.43;;;;;;;11.31;67.09;98893.27;1699217;84;25416;-60
2022/05/15 02:42:48;;;;;;;19.90;13.53;;;;;;;11.39;67.18;98887.03;1699265;84;25709;-60
2022/05/15 02:45:15;;;;;;;19.37;13.35;;;;;;;11.51;67.06;98882.33;1699033;84;25798;-59
2022/05/15 02:47:41;;;;;;;17.42;11.93;;;;;;;11.64;66.92;98882.56;1699113;84;25728;-60
2022/05/15 02:52:55;;;;;;;14.75;11.35;;;;;;;11.85;66.79;98891.61;1635328;87;25777;-59
2022/05/15 02:55:24;;;;;;;19.40;11.97;;;;;;;11.81;67.12;98894.19;1635496;87;25714;-60
2022/05/15 02:57:52;;;;;;;21.37;13.35;;;;;;;11.77;67.55;98893.19;1635327;87;25687;-60
2022/05/15 03:00:22;;;;;;;21.10;13.30;;;;;;;11.82;67.58;98887.56;1635250;87;25767;-59
2022/05/15 03:02:49;;;;;;;22.48;13.90;;;;;;;11.78;67.85;98884.63;1635666;87;28578;-59
2022/05/15 03:05:18;;;;;;;26.75;13.90;;;;;;;11.81;67.69;98885.95;1635258;87;25268;-59
2022/05/15 03:07:45;;;;;;;19.30;13.00;;;;;;;11.82;67.66;98884.82;1635436;87;25669;-59
2022/05/15 03:10:16;;;;;;;24.40;13.50;;;;;;;11.88;67.74;98881.36;1635494;87;25766;-56
2022/05/15 03:12:42;;;;;;;22.10;12.60;;;;;;;11.94;67.75;98890.30;1637034;87;25761;-60
2022/05/15 03:15:15;;;;;;;20.35;12.75;;;;;;;11.85;68.21;98895.17;1622217;88;28345;-58
2022/05/15 03:17:43;;;;;;;20.43;12.85;;;;;;;11.85;68.11;98888.86;1644568;87;25814;-56
2022/05/15 03:20:12;;;;;;;18.23;13.10;;;;;;;11.86;68.11;98895.41;1644812;87;25582;-58
2022/05/15 03:22:38;;;;;;;21.23;12.53;;;;;;;11.89;68.09;98889.87;1644712;87;25861;-60
2022/05/15 03:25:06;;;;;;;16.70;12.33;;;;;;;11.97;67.99;98890.45;1696282;84;25471;-60
2022/05/15 03:27:32;;;;;;;19.42;13.30;;;;;;;12.05;67.89;98898.48;1701508;84;27390;-60
2022/05/15 03:29:58;;;;;;;25.65;12.60;;;;;;;12.14;68.05;98906.77;1701621;84;25597;-56
2022/05/15 03:32:24;;;;;;;18.77;12.60;;;;;;;12.11;68.08;98908.78;1701697;84;25451;-58
2022/05/15 03:34:49;;;;;;;20.32;12.70;;;;;;;12.07;68.45;98912.75;1701552;84;26545;-60
2022/05/15 03:37:15;;;;;;;18.52;12.70;;;;;;;11.95;68.48;98916.06;1701776;84;25594;-58
2022/05/15 03:39:42;;;;;;;19.60;14.63;;;;;;;11.85;69.12;98919.89;1701471;84;27509;-61
2022/05/15 03:42:09;;;;;;;21.77;14.93;;;;;;;11.79;68.89;98927.45;1701461;84;25841;-61
2022/05/15 03:44:37;;;;;;;22.07;15.03;;;;;;;11.75;69.18;98926.45;1701429;84;25617;-59
2022/05/15 03:47:07;;;;;;;21.97;16.20;;;;;;;11.70;69.24;98935.39;1701344;84;25820;-59
2022/05/15 03:49:33;;;;;;;24.97;17.30;;;;;;;11.72;69.07;98941.38;1701774;84;25778;-61
2022/05/15 03:51:59;;;;;;;24.05;15.70;;;;;;;11.76;69.08;98930.02;1701395;84;28381;-59
2022/05/15 03:54:25;;;;;;;21.45;15.40;;;;;;;11.80;69.10;98932.37;1701599;84;25598;-60
2022/05/15 03:56:51;;;;;;;20.72;14.70;;;;;;;11.82;69.16;98937.55;1701570;84;25701;-61
2022/05/15 03:59:25;;;;;;;21.27;15.30;;;;;;;11.85;69.32;98936.91;1701176;84;25709;-60
2022/05/15 04:01:51;;;;;;;24.77;15.38;;;;;;;11.92;69.06;98940.83;1701545;84;25729;-59
2022/05/15 04:04:18;;;;;;;26.37;16.05;;;;;;;11.98;69.15;98947.57;1701689;84;27447;-60
2022/05/15 04:06:44;;;;;;;27.90;16.30;;;;;;;12.04;69.05;98938.86;1701653;84;25813;-61
2022/05/15 04:09:10;;;;;;;24.30;15.72;;;;;;;12.07;68.83;98940.21;1701516;84;25670;-60
2022/05/15 04:11:36;;;;;;;23.98;15.45;;;;;;;12.11;68.83;98945.31;1701217;84;26706;-60
2022/05/15 04:14:03;;;;;;;25.88;15.15;;;;;;;12.19;69.00;98940.98;1697085;84;25674;-60
2022/05/15 04:16:30;;;;;;;22.40;14.28;;;;;;;12.27;68.85;98946.27;1686413;85;27442;-61
2022/05/15 04:18:57;;;;;;;21.73;15.65;;;;;;;12.44;69.00;98947.44;1686518;85;25450;-61
2022/05/15 04:21:24;;;;;;;22.22;14.15;;;;;;;12.62;69.75;98943.61;1686513;85;25500;-61
2022/05/15 04:23:50;;;;;;;22.87;14.10;;;;;;;12.85;68.70;98944.04;1686610;85;25806;-61
2022/05/15 04:26:17;;;;;;;18.10;13.62;;;;;;;13.05;68.37;98947.55;1686784;85;25658;-61
2022/05/15 04:28:43;;;;;;;20.43;13.05;;;;;;;13.26;67.99;98945.51;1686579;85;27419;-60
2022/05/15 04:31:09;;;;;;;18.90;13.00;;;;;;;13.42;67.98;98948.56;1686505;85;25859;-60
2022/05/15 04:33:35;;;;;;;22.30;13.25;;;;;;;13.58;67.54;98951.42;1686476;85;25625;-61
2022/05/15 04:36:02;;;;;;;17.60;12.30;;;;;;;13.70;67.50;98950.75;1686186;84;25622;-61
2022/05/15 04:38:29;;;;;;;17.95;13.48;;;;;;;13.88;67.05;98954.26;1686489;85;25454;-61
2022/05/15 04:40:55;;;;;;;19.57;13.43;;;;;;;14.05;66.25;98952.81;1686390;85;27959;-56
2022/05/15 04:43:21;;;;;;;18.40;12.78;;;;;;;14.20;65.96;98948.47;1686486;85;25679;-57
2022/05/15 04:45:47;;;;;;;18.23;12.37;;;;;;;14.31;65.28;98951.10;1686626;85;25504;-57
2022/05/15 04:48:14;;;;;;;19.27;13.08;;;;;;;14.38;65.69;98958.27;1686528;85;26532;-58
2022/05/15 04:50:40;;;;;;;17.80;12.60;;;;;;;14.51;65.45;98961.92;1686411;85;25611;-58
2022/05/15 04:53:07;;;;;;;19.57;12.68;;;;;;;14.65;65.59;98956.17;1686484;85;27391;-59
2022/05/15 04:55:33;;;;;;;19.73;12.98;;;;;;;14.75;64.30;98959.69;1684692;83;25741;-57
2022/05/15 04:58:00;;;;;;;17.27;12.93;;;;;;;14.84;64.35;98965.98;1686599;84;25497;-57
2022/05/15 05:00:26;;;;;;;18.92;13.03;;;;;;;14.90;64.24;98953.61;1686709;84;25853;-57
2022/05/15 05:02:52;;;;;;;19.98;13.03;;;;;;;15.03;63.38;98968.87;1686526;85;25678;-57
2022/05/15 05:05:19;;;;;;;18.05;12.50;;;;;;;15.02;64.21;98969.43;1686650;84;27580;-57
2022/05/15 05:07:45;;;;;;;18.77;13.32;;;;;;;15.13;63.94;98977.30;1686730;85;25873;-59
2022/05/15 05:10:13;;;;;;;19.45;12.65;;;;;;;15.25;63.82;98980.13;1686101;85;25631;-57
2022/05/15 05:12:40;;;;;;;16.37;11.80;;;;;;;15.30;62.82;98974.98;1686498;84;25771;-59
2022/05/15 05:15:09;;;;;;;18.00;12.10;;;;;;;15.38;62.83;98976.05;1686205;84;25606;-62
2022/05/15 05:17:35;;;;;;;16.73;12.68;;;;;;;15.49;62.25;98979.20;1686571;84;27446;-61
2022/05/15 05:20:02;;;;;;;18.73;11.55;;;;;;;15.63;62.32;98990.76;1686575;84;25509;-59
2022/05/15 05:22:28;;;;;;;18.27;12.70;;;;;;;15.75;61.76;98987.81;1686585;84;25586;-60
2022/05/15 05:24:54;;;;;;;16.17;10.90;;;;;;;15.88;61.18;98991.41;1686439;85;26513;-60
2022/05/15 05:27:20;;;;;;;15.32;11.08;;;;;;;15.97;60.25;98989.39;1686480;85;25621;-61
2022/05/15 05:29:46;;;;;;;15.78;11.15;;;;;;;16.05;60.61;98994.59;1686369;85;27408;-62
2022/05/15 05:32:12;;;;;;;15.08;10.43;;;;;;;16.11;59.88;99000.13;1686382;85;25588;-59
2022/05/15 05:34:38;;;;;;;14.50;10.08;;;;;;;16.13;60.29;99004.76;1686378;85;25649;-60
2022/05/15 05:37:05;;;;;;;15.85;9.45;;;;;;;16.25;59.41;98999.00;1686460;85;25781;-62
2022/05/15 05:39:30;;;;;;;14.45;9.83;;;;;;;16.42;59.10;99002.13;1686347;85;25512;-59
2022/05/15 05:41:58;;;;;;;14.33;9.55;;;;;;;16.60;58.71;99008.24;1686736;85;28265;-58
2022/05/15 05:44:25;;;;;;;14.28;9.33;;;;;;;16.74;58.71;99002.36;1686216;85;25452;-61
2022/05/15 05:46:52;;;;;;;16.25;9.78;;;;;;;16.90;58.08;98999.68;1686419;85;25635;-63
2022/05/15 05:49:18;;;;;;;14.05;9.03;;;;;;;17.11;57.62;99004.30;1686489;85;25758;-60
2022/05/15 05:51:45;;;;;;;12.73;9.18;;;;;;;17.21;57.23;99011.91;1686340;85;25693;-58
2022/05/15 05:54:12;;;;;;;12.37;8.70;;;;;;;17.45;56.34;99010.20;1686634;85;28182;-58
2022/05/15 05:56:38;;;;;;;13.35;8.73;;;;;;;17.48;56.34;99015.05;1684835;84;25753;-62
2022/05/15 05:59:04;;;;;;;16.73;8.53;;;;;;;17.65;54.34;99010.58;1686473;84;25738;-63
2022/05/15 06:01:30;;;;;;;11.38;7.87;;;;;;;17.69;55.06;99014.84;1687286;84;25796;-62
2022/05/15 06:06:40;;;;;;;11.73;7.03;;;;;;;17.66;54.66;99016.94;1681922;84;25683;-62
2022/05/15 06:09:07;;;;;;;13.13;7.15;;;;;;;17.93;54.00;99012.53;1683857;84;25779;-62
2022/05/15 06:11:32;;;;;;;10.85;6.45;;;;;;;18.20;53.31;99025.12;1681676;84;25701;-61
2022/05/15 06:13:59;;;;;;;11.83;6.30;;;;;;;18.22;53.51;99019.43;1690282;84;25713;-61
2022/05/15 06:16:25;;;;;;;11.22;6.55;;;;;;;18.20;51.50;99023.73;1691627;84;25729;-62
2022/05/15 06:18:52;;;;;;;10.20;5.72;;;;;;;18.03;53.01;99023.70;1696554;84;27478;-62
2022/05/15 06:21:17;;;;;;;10.63;5.83;;;;;;;18.30;52.85;99021.23;1696572;84;25524;-62
2022/05/15 06:23:44;;;;;;;16.27;5.70;;;;;;;18.64;52.76;99025.61;1696812;84;25674;-62
2022/05/15 06:26:10;;;;;;;9.30;5.12;;;;;;;18.84;51.49;99028.45;1694905;84;25800;-64
2022/05/15 06:28:37;;;;;;;9.03;5.03;;;;;;;18.78;48.93;99037.06;1696348;84;25479;-63
2022/05/15 06:31:04;;;;;;;11.83;5.08;;;;;;;18.82;51.35;99032.97;1696594;84;27572;-63
2022/05/15 06:33:30;;;;;;;8.10;4.80;;;;;;;18.86;50.70;99030.29;1696321;84;25613;-62
2022/05/15 06:35:56;;;;;;;7.92;4.33;;;;;;;18.97;50.40;99033.31;1682161;84;26600;-63
2022/05/15 06:38:22;;;;;;;8.25;4.90;;;;;;;19.12;49.15;99030.30;1686319;84;26614;-63
2022/05/15 06:40:48;;;;;;;7.85;4.00;;;;;;;19.18;48.13;99030.25;1686523;85;25478;-64
2022/05/15 06:43:14;;;;;;;7.17;4.25;;;;;;;19.18;48.93;99035.80;1686934;85;27421;-63
2022/05/15 06:45:40;;;;;;;10.85;4.00;;;;;;;19.53;48.52;99029.41;1686221;85;25811;-62
2022/05/15 06:48:08;;;;;;;7.70;4.00;;;;;;;19.47;47.85;99032.25;1686264;85;25471;-63
2022/05/15 06:50:35;;;;;;;8.58;4.00;;;;;;;19.48;47.77;99036.62;1686529;85;25722;-63
2022/05/15 06:53:01;;;;;;;12.28;4.40;;;;;;;19.33;47.47;99033.32;1686362;85;25456;-63
2022/05/15 06:55:28;;;;;;;6.10;3.98;;;;;;;19.43;48.26;99039.11;1686342;85;27553;-64
2022/05/15 06:57:56;;;;;;;8.20;4.33;;;;;;;19.48;46.83;99031.64;1686064;84;25749;-62
2022/05/15 07:00:27;;;;;;;8.33;4.35;;;;;;;19.42;47.55;99031.14;1686330;85;25525;-64
2022/05/15 07:02:53;;;;;;;8.35;4.35;;;;;;;19.31;47.54;99035.89;1686303;84;25715;-63
2022/05/15 07:05:24;;;;;;;8.70;4.00;;;;;;;19.46;48.09;99039.56;1686526;85;25632;-63
2022/05/15 07:07:54;;;;;;;6.83;3.90;;;;;;;19.75;47.61;99045.11;1685875;85;28028;-63
2022/05/15 07:10:22;;;;;;;5.10;3.58;;;;;;;20.01;46.71;99042.83;1686248;85;25655;-64
2022/05/15 07:12:49;;;;;;;6.22;3.80;;;;;;;20.16;46.71;99043.34;1687492;84;25701;-64
2022/05/15 07:15:15;;;;;;;6.47;3.80;;;;;;;20.32;45.52;99045.19;1686097;84;25706;-63
2022/05/15 07:17:42;;;;;;;7.15;4.03;;;;;;;20.63;45.09;99037.77;1686310;85;25621;-63
2022/05/15 07:20:10;;;;;;;8.73;3.90;;;;;;;20.66;43.67;99039.80;1686515;85;27614;-63
2022/05/15 07:22:36;;;;;;;9.05;3.87;;;;;;;20.60;44.38;99037.69;1686310;84;25533;-64
2022/05/15 07:25:04;;;;;;;6.17;3.22;;;;;;;20.77;43.81;99044.73;1686381;85;25666;-63
2022/05/15 07:27:30;;;;;;;7.05;3.20;;;;;;;21.01;44.53;99044.15;1686423;85;25669;-63
2022/05/15 07:29:57;;;;;;;6.17;3.62;;;;;;;21.18;42.17;99039.98;1686492;85;25487;-62
2022/05/15 07:32:23;;;;;;;8.78;3.33;;;;;;;21.11;42.92;99043.49;1682341;83;27874;-59
2022/05/15 07:34:49;;;;;;;6.20;3.27;;;;;;;21.33;43.21;99039.61;1686354;84;25669;-58
2022/05/15 07:37:16;;;;;;;7.40;3.05;;;;;;;21.61;43.24;99037.55;1686498;85;25690;-59
2022/05/15 07:39:43;;;;;;;7.45;3.58;;;;;;;21.93;42.68;99033.77;1686292;84;25807;-60
2022/05/15 07:42:10;;;;;;;6.47;3.52;;;;;;;21.89;41.90;99045.49;1686435;84;25661;-59
2022/05/15 07:44:37;;;;;;;6.42;3.20;;;;;;;22.05;41.47;99043.86;1686239;85;27388;-59
2022/05/15 07:47:04;;;;;;;6.00;3.27;;;;;;;22.41;41.55;99037.02;1686387;84;25713;-59
2022/05/15 07:49:32;;;;;;;5.47;3.02;;;;;;;22.87;41.02;99040.59;1686376;84;25496;-61
2022/05/15 07:51:59;;;;;;;5.45;2.98;;;;;;;23.12;39.52;99043.57;1686332;85;25688;-64
2022/05/15 07:54:26;;;;;;;7.87;3.15;;;;;;;23.16;40.21;99047.77;1686170;84;25502;-59
2022/05/15 07:56:53;;;;;;;4.37;2.65;;;;;;;23.36;38.06;99048.87;1686169;84;27503;-63
2022/05/15 07:59:20;;;;;;;5.85;2.92;;;;;;;23.66;40.83;99045.06;1686337;85;25870;-63
2022/05/15 08:01:46;;;;;;;5.30;2.67;;;;;;;23.97;38.91;99048.95;1686382;85;25632;-63
2022/05/15 08:04:12;;;;;;;6.75;3.10;;;;;;;24.20;38.94;99043.63;1686261;85;25796;-61
2022/05/15 08:09:23;;;;;;;7.78;3.35;;;;;;;24.52;37.47;99045.04;1686269;85;25649;-59
2022/05/15 08:11:50;;;;;;;5.33;3.10;;;;;;;24.68;37.64;99039.64;1686124;85;25484;-62
2022/05/15 08:14:17;;;;;;;5.70;3.25;;;;;;;24.52;37.73;99039.44;1686202;84;25442;-63
2022/05/15 08:16:43;;;;;;;8.65;3.42;;;;;;;24.91;37.24;99042.06;1686227;85;25689;-57
2022/05/15 08:24:41;;;;;;;6.58;2.72;;;;;;;25.65;36.76;99049.69;1686151;85;25623;-63
2022/05/15 08:27:09;;;;;;;6.15;3.17;;;;;;;25.85;35.93;99054.80;1686230;84;25630;-60
2022/05/15 08:29:37;;;;;;;4.97;2.40;;;;;;;26.02;35.50;99054.52;1686191;85;25878;-59
2022/05/15 08:32:06;;;;;;;6.37;2.40;;;;;;;26.21;34.54;99056.59;1686197;85;25626;-59
2022/05/15 08:34:34;;;;;;;4.42;3.20;;;;;;;26.43;34.75;99046.83;1686527;84;27590;-57
2022/05/15 08:37:01;;;;;;;6.87;3.20;;;;;;;26.41;34.04;99049.27;1686386;84;25611;-59
2022/05/15 08:39:29;;;;;;;6.35;3.10;;;;;;;26.53;34.03;99048.56;1686223;85;25621;-63
2022/05/15 08:42:22;;;;;;;9.20;2.87;;;;;;;26.94;33.81;99047.80;1686358;85;25781;-63
2022/05/15 08:44:55;;;;;;;5.65;3.05;;;;;;;26.64;33.88;99040.05;1686262;85;25705;-60
2022/05/15 08:47:31;;;;;;;5.45;2.75;;;;;;;26.55;34.42;99046.14;1686242;85;28348;-62
2022/05/15 08:50:07;;;;;;;5.20;3.08;;;;;;;26.54;33.86;99048.77;1686236;85;25713;-60
2022/05/15 08:52:58;;;;;;;8.13;3.10;;;;;;;26.90;33.70;99051.26;1686450;85;25451;-58
2022/05/15 08:55:45;;;;;;;4.83;3.25;;;;;;;27.41;33.52;99046.55;1686051;84;26215;-61
2022/05/15 08:58:20;;;;;;;6.58;3.17;;;;;;;27.61;32.50;99043.69;1681628;85;25662;-63
2022/05/15 09:00:52;;;;;;;7.95;3.00;;;;;;;27.27;32.99;99044.69;1686177;85;27515;-59
2022/05/15 09:03:26;;;;;;;6.10;2.80;;;;;;;26.92;32.09;99039.00;1686381;85;25652;-63
2022/05/15 09:06:04;;;;;;;4.25;2.70;;;;;;;26.59;33.12;99044.09;1685373;84;25780;-63
2022/05/15 09:08:58;;;;;;;5.97;2.60;;;;;;;26.54;32.95;99047.37;1686461;85;26076;-62
2022/05/15 09:12:03;;;;;;;7.83;2.95;;;;;;;26.81;32.25;99050.34;1686659;84;25610;-58
2022/05/15 09:15:04;;;;;;;6.53;2.65;;;;;;;27.14;31.43;99038.78;1658856;85;27683;-63
2022/05/15 09:17:45;;;;;;;5.45;2.37;;;;;;;26.89;30.81;99053.08;1652430;86;25686;-63
2022/05/15 09:20:17;;;;;;;5.78;3.12;;;;;;;26.29;30.91;99049.72;1625773;88;25798;-64
2022/05/15 09:22:48;;;;;;;8.73;3.47;;;;;;;25.65;31.60;99057.48;1624518;88;25895;-64
2022/05/15 09:25:24;;;;;;;5.42;3.02;;;;;;;25.36;32.28;99053.97;1625819;88;25702;-63
2022/05/15 09:28:12;;;;;;;6.65;3.15;;;;;;;25.33;32.34;99054.78;1626188;88;27468;-63
2022/05/15 09:30:44;;;;;;;6.75;3.15;;;;;;;25.53;32.68;99044.68;1625915;88;25536;-63
2022/05/15 09:33:33;;;;;;;6.55;2.80;;;;;;;25.53;31.15;99037.66;1625800;88;25686;-63
2022/05/15 09:36:27;;;;;;;7.33;2.98;;;;;;;25.76;32.05;99048.23;1642076;86;25983;-63
2022/05/15 09:39:28;;;;;;;6.22;3.10;;;;;;;26.33;31.37;99045.52;1653160;86;25707;-62
2022/05/15 09:45:22;;;;;;;6.33;2.95;;;;;;;26.73;31.06;99054.42;1652789;86;25749;-62
2022/05/15 09:48:00;;;;;;;6.70;2.83;;;;;;;26.29;30.34;99055.34;1652920;86;25766;-63
2022/05/15 09:50:52;;;;;;;7.47;2.95;;;;;;;26.19;30.92;99049.38;1653020;86;25827;-63
2022/05/15 09:53:30;;;;;;;5.42;2.98;;;;;;;26.75;30.92;99054.01;1653094;86;25494;-63
2022/05/15 09:56:05;;;;;;;6.67;2.40;;;;;;;26.87;29.75;99056.31;1702882;83;27485;-62
2022/05/15 09:58:57;;;;;;;5.55;2.70;;;;;;;26.54;30.20;99056.58;1705386;84;25876;-63
2022/05/15 10:01:41;;;;;;;5.30;2.60;;;;;;;26.43;30.20;99047.45;1707001;84;25681;-62
2022/05/15 10:04:27;;;;;;;6.85;2.98;;;;;;;26.60;29.77;99052.73;1706821;84;26240;-62
2022/05/15 10:07:03;;;;;;;7.37;3.70;;;;;;;26.89;30.52;99054.48;1706747;84;25598;-64
2022/05/15 10:09:37;;;;;;;8.58;3.30;;;;;;;26.64;30.02;99056.91;1706930;84;28263;-63
2022/05/15 10:12:30;;;;;;;8.73;3.45;;;;;;;25.74;30.33;99043.63;1705884;84;43937;-63
2022/05/15 10:15:06;;;;;;;5.25;2.75;;;;;;;25.21;31.83;99050.41;1702316;83;25951;-64
2022/05/15 10:17:32;;;;;;;7.20;2.60;;;;;;;24.40;31.84;99046.23;1687196;84;25855;-62
2022/05/15 10:20:19;;;;;;;6.45;3.02;;;;;;;24.49;32.30;99044.44;1687747;84;25545;-62
2022/05/15 10:22:56;;;;;;;6.22;3.20;;;;;;;24.97;31.98;99050.04;1683512;84;27626;-62
2022/05/15 10:25:37;;;;;;;6.40;3.25;;;;;;;24.46;32.51;99052.23;1678604;84;26315;-63
2022/05/15 10:28:32;;;;;;;6.50;3.02;;;;;;;24.73;33.83;99042.64;1682349;84;25749;-62
2022/05/15 10:31:25;;;;;;;6.60;2.83;;;;;;;24.91;33.44;99050.47;1680580;84;25877;-63
2022/05/15 10:34:11;;;;;;;6.75;3.08;;;;;;;25.03;33.53;99053.45;1682992;84;26646;-62
2022/05/15 10:37:06;;;;;;;9.40;4.22;;;;;;;25.78;32.99;99045.21;1683660;84;27531;-63
2022/05/15 10:40:20;;;;;;;7.42;4.33;;;;;;;26.10;31.17;99040.61;1678473;84;25777;-63
2022/05/15 10:43:03;;;;;;;7.35;3.40;;;;;;;26.32;31.33;99041.91;1676803;84;25656;-61
2022/05/15 10:45:48;;;;;;;5.45;3.62;;;;;;;26.56;29.92;99040.70;1688586;84;25738;-61
2022/05/15 10:48:51;;;;;;;9.05;3.17;;;;;;;26.43;29.80;99041.83;1685471;84;25557;-63
2022/05/15 10:51:59;;;;;;;5.47;2.95;;;;;;;26.06;30.25;99037.03;1678298;84;28616;-62
2022/05/15 10:58:17;;;;;;;8.70;3.00;;;;;;;25.22;31.87;99042.19;1685827;85;25630;-63
2022/05/15 11:00:52;;;;;;;7.17;3.25;;;;;;;25.24;31.83;99038.39;1687840;84;26258;-63
2022/05/15 11:04:02;;;;;;;6.33;3.30;;;;;;;25.43;31.65;99038.52;1692313;84;25746;-62
2022/05/15 11:06:48;;;;;;;8.13;2.90;;;;;;;26.03;30.78;99031.64;1665018;84;27769;-60
2022/05/15 11:09:26;;;;;;;4.72;2.50;;;;;;;26.16;30.39;99026.33;1692313;84;25645;-59
2022/05/15 11:12:10;;;;;;;5.83;2.52;;;;;;;25.41;30.85;99030.50;1683924;84;25693;-62
2022/05/15 11:14:58;;;;;;;4.87;2.47;;;;;;;24.62;31.37;99033.64;1663851;85;27879;-62
2022/05/15 11:18:04;;;;;;;4.72;2.58;;;;;;;23.83;32.53;99040.70;1669405;85;25665;-61
2022/05/15 11:20:43;;;;;;;5.67;2.65;;;;;;;23.64;33.31;99029.25;1669681;85;27567;-61
2022/05/15 11:23:17;;;;;;;4.90;2.65;;;;;;;23.72;32.86;99035.09;1669848;84;25764;-61
2022/05/15 11:25:55;;;;;;;4.42;2.30;;;;;;;23.77;32.38;99023.50;1669849;84;25688;-62
2022/05/15 11:28:32;;;;;;;5.90;2.40;;;;;;;24.08;32.41;99018.16;1661097;86;25808;-61
2022/05/15 11:31:09;;;;;;;5.80;2.05;;;;;;;24.80;31.49;99016.00;1661508;86;25696;-62
2022/05/15 11:33:55;;;;;;;4.90;2.40;;;;;;;25.34;31.46;99014.30;1660767;86;25784;-61
2022/05/15 11:36:30;;;;;;;5.55;2.15;;;;;;;25.49;31.21;99011.64;1662045;86;25936;-61
2022/05/15 11:39:01;;;;;;;5.65;2.20;;;;;;;25.39;31.03;99024.48;1663050;86;25495;-60
2022/05/15 11:41:41;;;;;;;4.78;2.05;;;;;;;25.61;31.44;99012.41;1662733;86;25777;-61
2022/05/15 11:44:22;;;;;;;3.25;2.00;;;;;;;25.50;30.14;99018.06;1662535;86;25549;-57
2022/05/15 11:46:53;;;;;;;5.33;2.00;;;;;;;25.19;30.50;99015.77;1659129;86;27462;-61
2022/05/15 11:49:27;;;;;;;7.28;2.45;;;;;;;25.30;29.46;99008.72;1662624;86;25708;-61
2022/05/15 11:52:12;;;;;;;2.87;1.62;;;;;;;25.99;29.23;99003.39;1662767;86;25708;-61
2022/05/15 11:54:42;;;;;;;5.12;1.72;;;;;;;26.29;28.68;99004.78;1661674;86;25945;-57
2022/05/15 11:57:35;;;;;;;6.30;1.95;;;;;;;25.76;29.10;99007.55;1662332;86;25744;-61
2022/05/15 12:00:06;;;;;;;4.40;1.98;;;;;;;25.14;29.59;99002.95;1626135;88;27511;-59
2022/05/15 12:02:37;;;;;;;3.80;1.70;;;;;;;24.56;30.95;99004.43;1617735;87;25709;-60
2022/05/15 12:05:33;;;;;;;4.87;1.90;;;;;;;24.50;31.05;99002.64;1640001;87;25758;-61